Time;durP1;ratioP1;P1;durP2;ratioP2;P2;SDS_P1;SDS_P2;PMS_P1;PMS_P2;Temp;Humidity;BMP_temperature;BMP_pressure;BME280_temperature;BME280_humidity;BME280_pressure;Samples;Min_cycle;Max_cycle;Signal;HPM_P1;HPM_P2
2022/08/11 00:01:20;;;;;;;2.90;1.00;;;26.70;61.90;;;;;;5033855;28;20037;-24
2022/08/11 00:03:51;;;;;;;1.17;0.93;;;26.70;61.90;;;;;;5033310;28;20025;-24
2022/08/11 00:06:30;;;;;;;1.33;1.13;;;26.70;61.90;;;;;;5033951;28;20022;-24
2022/08/11 00:08:58;;;;;;;2.72;1.02;;;26.70;61.90;;;;;;5033654;28;20483;-24
2022/08/11 00:11:38;;;;;;;3.40;1.08;;;26.70;61.90;;;;;;5033942;28;20026;-24
2022/08/11 00:14:32;;;;;;;3.70;1.02;;;26.70;61.90;;;;;;5033361;28;20029;-24
2022/08/11 00:17:00;;;;;;;4.10;1.00;;;26.70;62.00;;;;;;5033116;28;20402;-24
2022/08/11 00:19:28;;;;;;;2.22;1.00;;;26.70;62.00;;;;;;5015437;28;20414;-24
2022/08/11 00:21:55;;;;;;;2.15;1.13;;;26.70;62.00;;;;;;5033321;28;20026;-24
2022/08/11 00:24:22;;;;;;;1.25;0.90;;;26.70;62.00;;;;;;5033197;28;20053;-24
2022/08/11 00:26:51;;;;;;;2.67;0.90;;;26.70;62.00;;;;;;5033260;28;20104;-24
2022/08/11 00:29:17;;;;;;;3.42;1.25;;;26.70;62.00;;;;;;5015244;28;20022;-24
2022/08/11 00:31:54;;;;;;;1.30;0.90;;;26.60;61.90;;;;;;5033269;28;20053;-24
2022/08/11 00:34:35;;;;;;;3.42;1.10;;;26.60;61.80;;;;;;5033295;28;20029;-24
2022/08/11 00:37:06;;;;;;;1.25;0.85;;;26.70;62.00;;;;;;5033172;28;20501;-24
2022/08/11 00:39:41;;;;;;;1.98;1.10;;;26.70;62.00;;;;;;5033157;28;20029;-24
2022/08/11 00:42:44;;;;;;;4.15;1.27;;;26.60;61.90;;;;;;5033089;28;20030;-24
2022/08/11 00:45:22;;;;;;;1.70;0.90;;;26.60;61.90;;;;;;5033048;28;20025;-24
2022/08/11 00:48:08;;;;;;;1.55;1.00;;;26.60;61.90;;;;;;5032782;28;20425;-24
2022/08/11 00:50:54;;;;;;;1.50;1.00;;;26.60;61.90;;;;;;5033099;28;20026;-24
2022/08/11 00:54:05;;;;;;;1.75;1.00;;;26.60;61.90;;;;;;5033595;28;20026;-24
2022/08/11 00:56:54;;;;;;;2.17;1.10;;;26.60;61.90;;;;;;5032948;28;20079;-24
2022/08/11 00:59:40;;;;;;;3.30;1.13;;;26.60;62.00;;;;;;5032608;28;20076;-24
2022/08/11 01:02:06;;;;;;;2.65;1.17;;;26.60;62.00;;;;;;5032616;28;20030;-25
2022/08/11 01:04:51;;;;;;;1.95;1.02;;;26.60;61.90;;;;;;5032812;28;20028;-25
2022/08/11 01:07:59;;;;;;;1.98;0.95;;;26.60;62.00;;;;;;5032850;28;20506;-25
2022/08/11 01:10:47;;;;;;;3.90;1.00;;;26.60;62.00;;;;;;5018987;28;20040;-25
2022/08/11 01:13:24;;;;;;;1.85;1.35;;;26.50;61.90;;;;;;5032709;28;20062;-25
2022/08/11 01:15:50;;;;;;;1.95;1.08;;;26.50;61.90;;;;;;5032414;28;20080;-25
2022/08/11 01:18:34;;;;;;;2.33;1.23;;;26.50;61.90;;;;;;5032520;28;20048;-25
2022/08/11 01:21:24;;;;;;;2.58;1.00;;;26.50;61.90;;;;;;5032347;28;20103;-25
2022/08/11 01:24:25;;;;;;;3.45;1.30;;;26.50;62.00;;;;;;5032582;28;20050;-25
2022/08/11 01:27:12;;;;;;;3.45;1.50;;;26.50;61.90;;;;;;5001842;28;20033;-25
2022/08/11 01:30:05;;;;;;;2.78;1.17;;;26.50;61.90;;;;;;5032326;28;20037;-25
2022/08/11 01:32:51;;;;;;;2.92;1.20;;;26.50;62.00;;;;;;5032356;28;20022;-25
2022/08/11 01:35:39;;;;;;;1.90;1.20;;;26.50;62.00;;;;;;5014722;28;20021;-25
2022/08/11 01:38:24;;;;;;;3.08;1.25;;;26.50;62.00;;;;;;5032482;28;20143;-25
2022/08/11 01:44:36;;;;;;;2.30;1.25;;;26.40;61.90;;;;;;5032301;28;20079;-25
2022/08/11 01:44:54;;;;;;;2.13;1.20;;;26.50;62.00;;;;;;5032148;28;20028;-25
2022/08/11 01:47:52;;;;;;;4.00;1.20;;;26.40;61.90;;;;;;5032098;28;20025;-25
2022/08/11 01:50:25;;;;;;;3.03;1.15;;;26.40;61.90;;;;;;5031982;28;20037;-25
2022/08/11 01:53:13;;;;;;;5.03;1.35;;;26.40;61.90;;;;;;5032142;28;20045;-25
2022/08/11 01:56:16;;;;;;;2.45;1.20;;;26.40;61.90;;;;;;5032092;28;20032;-25
2022/08/11 01:58:48;;;;;;;1.83;1.13;;;26.40;62.00;;;;;;5013898;28;20064;-25
2022/08/11 02:01:32;;;;;;;1.63;1.23;;;26.40;61.90;;;;;;5032115;28;20025;-25
2022/08/11 02:04:32;;;;;;;3.00;1.27;;;26.40;62.00;;;;;;5032142;28;20061;-25
2022/08/11 02:07:34;;;;;;;2.35;1.00;;;26.40;62.00;;;;;;5032149;28;20024;-25
2022/08/11 02:13:29;;;;;;;2.22;1.27;;;26.40;62.00;;;;;;5031918;28;20087;-25
2022/08/11 02:16:24;;;;;;;2.25;1.15;;;26.30;62.00;;;;;;5032152;28;20087;-25
2022/08/11 02:25:05;;;;;;;1.98;1.35;;;26.30;62.00;;;;;;5032088;28;20032;-25
2022/08/11 02:28:16;;;;;;;2.30;1.33;;;26.30;62.00;;;;;;5034334;28;20490;-25
2022/08/11 02:34:11;;;;;;;2.05;1.23;;;26.30;62.10;;;;;;5035922;28;20536;-25
2022/08/11 02:36:53;;;;;;;1.73;1.17;;;26.30;62.00;;;;;;5035852;28;20022;-25
2022/08/11 02:39:21;;;;;;;3.25;1.13;;;26.30;62.10;;;;;;5035157;28;20025;-25
2022/08/11 02:42:21;;;;;;;1.50;0.95;;;26.30;62.10;;;;;;5035122;28;20113;-25
2022/08/11 02:44:58;;;;;;;1.88;1.17;;;26.20;62.00;;;;;;5035334;28;20026;-25
2022/08/11 02:47:37;;;;;;;1.48;1.00;;;26.30;62.10;;;;;;5035087;28;20032;-25
2022/08/11 02:50:22;;;;;;;1.73;1.20;;;26.20;62.70;;;;;;5035201;28;20076;-25
2022/08/11 02:53:02;;;;;;;1.80;1.17;;;26.30;62.10;;;;;;5035268;28;20026;-25
2022/08/11 02:56:02;;;;;;;4.25;1.02;;;26.30;62.10;;;;;;5035148;28;20029;-25
2022/08/11 02:59:48;;;;;;;3.42;1.42;;;26.20;62.00;;;;;;5031361;28;20121;-25
2022/08/11 03:01:44;;;;;;;3.08;1.23;;;26.20;62.10;;;;;;5034519;28;20029;-25
2022/08/11 03:04:17;;;;;;;1.35;0.93;;;26.20;62.00;;;;;;5035058;28;20029;-25
2022/08/11 03:06:58;;;;;;;1.80;1.10;;;26.20;62.10;;;;;;5034884;28;20047;-25
2022/08/11 03:09:38;;;;;;;1.58;1.05;;;26.20;62.10;;;;;;5034457;28;20017;-24
2022/08/11 03:18:05;;;;;;;3.47;1.13;;;26.20;62.10;;;;;;5034561;28;20029;-24
2022/08/11 03:21:10;;;;;;;1.42;1.20;;;26.10;62.10;;;;;;5034230;28;20029;-24
2022/08/11 03:23:52;;;;;;;2.33;1.08;;;26.10;62.10;;;;;;5016671;28;20033;-24
2022/08/11 03:26:43;;;;;;;3.22;1.23;;;26.10;62.10;;;;;;5034657;28;20398;-24
2022/08/11 03:29:21;;;;;;;3.10;1.30;;;26.10;62.10;;;;;;5034272;28;20017;-24
2022/08/11 03:32:00;;;;;;;2.58;1.20;;;26.10;62.10;;;;;;5034266;28;20025;-24
2022/08/11 03:34:30;;;;;;;1.60;1.00;;;26.10;62.10;;;;;;5034259;28;20026;-24
2022/08/11 03:37:52;;;;;;;2.17;1.30;;;26.10;62.20;;;;;;5034295;28;20025;-24
2022/08/11 03:43:17;;;;;;;3.53;1.20;;;26.10;62.10;;;;;;5034257;28;20163;-24
2022/08/11 03:46:05;;;;;;;4.20;1.20;;;26.00;62.10;;;;;;5033993;28;20486;-24
2022/08/11 03:48:42;;;;;;;1.45;1.00;;;26.00;62.10;;;;;;5033761;28;20045;-24
2022/08/11 03:51:22;;;;;;;3.38;1.42;;;26.00;62.10;;;;;;5033817;28;20033;-24
2022/08/11 03:54:31;;;;;;;1.75;1.08;;;26.00;62.10;;;;;;5034029;28;20508;-23
2022/08/11 03:57:28;;;;;;;2.10;1.20;;;26.00;62.10;;;;;;4972671;28;20034;-23
2022/08/11 04:00:22;;;;;;;3.25;1.00;;;26.00;62.10;;;;;;5033685;28;20032;-23
2022/08/11 04:03:24;;;;;;;1.65;0.90;;;26.00;62.20;;;;;;5033662;28;20390;-23
2022/08/11 04:06:24;;;;;;;2.78;1.13;;;26.00;62.20;;;;;;5015836;28;20136;-23
2022/08/11 04:09:17;;;;;;;2.10;1.20;;;26.00;62.20;;;;;;5033316;28;20057;-23
2022/08/11 04:12:10;;;;;;;3.75;1.23;;;26.00;62.20;;;;;;5033599;28;20429;-23
2022/08/11 04:18:17;;;;;;;2.28;1.15;;;25.90;62.20;;;;;;5034094;28;20287;-23
2022/08/11 04:21:09;;;;;;;2.42;1.00;;;25.90;62.10;;;;;;5033289;28;20475;-23
2022/08/11 04:23:53;;;;;;;2.30;1.23;;;25.90;62.20;;;;;;5033181;28;20025;-24
2022/08/11 04:26:59;;;;;;;3.33;1.27;;;25.90;62.20;;;;;;5032956;28;20124;-23
2022/08/11 04:29:44;;;;;;;1.55;1.08;;;25.80;62.20;;;;;;4955591;28;20027;-24
2022/08/11 04:32:33;;;;;;;1.60;1.10;;;25.90;62.30;;;;;;5027878;28;20037;-23
2022/08/11 04:35:17;;;;;;;3.38;1.00;;;25.90;62.30;;;;;;5032862;28;20061;-23
2022/08/11 04:37:58;;;;;;;2.45;1.20;;;25.90;62.30;;;;;;5033019;28;20029;-24
2022/08/11 04:40:52;;;;;;;2.80;1.17;;;25.80;62.30;;;;;;5032539;28;20037;-24
2022/08/11 04:43:30;;;;;;;2.35;1.23;;;25.80;62.30;;;;;;5032905;28;20328;-23
2022/08/11 04:46:25;;;;;;;2.38;1.10;;;25.80;62.40;;;;;;5032901;28;20021;-24
2022/08/11 05:01:39;;;;;;;2.72;1.15;;;25.70;62.40;;;;;;5032539;28;20044;-24
2022/08/11 05:08:02;;;;;;;4.30;1.20;;;25.70;62.40;;;;;;5032699;28;20068;-24
2022/08/11 05:10:53;;;;;;;2.97;1.20;;;25.70;62.50;;;;;;5014701;28;20165;-24
2022/08/11 05:37:02;;;;;;;3.75;1.38;;;25.60;62.70;;;;;;5032628;28;20453;-24
2022/08/11 05:57:00;;;;;;;3.53;1.90;;;24.50;64.50;;;;;;5031981;28;20048;-26
2022/08/11 05:59:27;;;;;;;4.00;1.52;;;23.90;66.70;;;;;;5031362;28;20018;-27
2022/08/11 06:02:03;;;;;;;4.03;1.80;;;23.50;67.90;;;;;;5032976;28;20021;-26
2022/08/11 06:04:29;;;;;;;7.35;1.85;;;23.10;69.30;;;;;;5035814;28;20447;-26
2022/08/11 06:06:59;;;;;;;7.50;1.75;;;22.80;70.30;;;;;;5017759;28;20509;-26
2022/08/11 06:09:32;;;;;;;5.28;1.58;;;22.50;71.30;;;;;;5035311;28;20096;-26
2022/08/11 06:12:07;;;;;;;5.68;1.45;;;22.40;71.90;;;;;;5035499;28;20071;-25
2022/08/11 06:14:39;;;;;;;8.73;1.80;;;22.30;72.30;;;;;;5035528;28;20087;-26
2022/08/11 06:17:05;;;;;;;5.30;2.00;;;22.30;72.60;;;;;;5035580;28;20048;-27
2022/08/11 06:19:34;;;;;;;5.25;1.70;;;22.30;73.10;;;;;;5035264;28;20467;-25
2022/08/11 06:22:01;;;;;;;3.88;1.70;;;22.30;73.20;;;;;;5035427;28;20382;-25
2022/08/11 06:24:28;;;;;;;6.78;2.03;;;22.20;73.40;;;;;;5035415;28;20088;-25
2022/08/11 06:26:55;;;;;;;5.55;2.00;;;22.10;73.60;;;;;;5035217;28;20028;-25
2022/08/11 06:29:22;;;;;;;5.65;1.70;;;22.20;73.90;;;;;;5034946;28;20029;-25
2022/08/11 06:32:00;;;;;;;4.32;1.77;;;22.20;73.80;;;;;;5035290;28;20430;-26
2022/08/11 06:35:04;;;;;;;6.07;2.08;;;22.20;73.50;;;;;;5017174;28;20026;-26
2022/08/11 06:37:42;;;;;;;7.18;1.75;;;22.30;73.10;;;;;;5034926;28;20025;-26
2022/08/11 06:40:26;;;;;;;7.68;1.80;;;22.40;73.30;;;;;;5034842;28;20057;-25
2022/08/11 06:43:17;;;;;;;4.55;1.80;;;22.50;73.20;;;;;;5034873;28;20029;-26
2022/08/11 06:45:50;;;;;;;6.13;1.88;;;22.50;73.20;;;;;;5028246;28;20084;-25
2022/08/11 06:48:19;;;;;;;5.43;1.88;;;22.60;73.20;;;;;;5014958;28;20021;-26
2022/08/11 06:53:38;;;;;;;8.07;1.70;;;22.70;73.20;;;;;;5014891;28;20144;-25
2022/08/11 07:01:45;;;;;;;;;;;22.80;73.30;;;;;;5023974;28;20469;-25
2022/08/11 07:04:13;;;;;;;3.65;1.77;;;22.90;73.30;;;;;;5014732;28;19948;-26
2022/08/11 07:15:49;;;;;;;;;;;23.20;72.50;;;;;;5015060;28;20041;-25
2022/08/11 07:29:45;;;;;;;4.35;1.73;;;24.20;70.40;;;;;;5034008;28;20028;-25
2022/08/11 07:32:22;;;;;;;3.92;2.00;;;24.30;70.00;;;;;;5033881;28;20035;-27
2022/08/11 07:34:54;;;;;;;6.05;2.00;;;24.50;69.70;;;;;;5033835;28;20030;-26
2022/08/11 07:37:23;;;;;;;3.70;1.83;;;24.50;69.20;;;;;;5033808;28;20030;-26
2022/08/11 07:39:50;;;;;;;2.70;1.80;;;24.70;69.10;;;;;;5019197;28;20037;-26
2022/08/11 07:42:22;;;;;;;2.65;1.55;;;24.80;68.80;;;;;;5013855;28;20025;-27
2022/08/11 07:53:04;;;;;;;;;;;25.10;68.10;;;;;;5028334;28;20124;-25
2022/08/11 07:55:31;;;;;;;2.38;1.50;;;25.10;68.00;;;;;;5033843;28;19904;-26
2022/08/11 08:20:06;;;;;;;3.30;1.60;;;25.50;67.40;;;;;;5032985;28;20536;-26
2022/08/11 08:22:33;;;;;;;2.50;1.50;;;25.50;67.30;;;;;;5033196;28;20030;-26
2022/08/11 08:24:59;;;;;;;3.05;1.55;;;25.50;67.20;;;;;;5032308;28;20552;-26
2022/08/11 08:27:25;;;;;;;1.88;1.30;;;25.50;67.10;;;;;;5032906;28;20536;-26
2022/08/11 08:32:42;;;;;;;2.65;1.67;;;25.60;67.00;;;;;;5033111;28;20120;-25
2022/08/11 08:35:10;;;;;;;2.28;1.40;;;25.60;67.00;;;;;;5032930;28;20033;-27
2022/08/11 08:37:36;;;;;;;2.85;1.52;;;25.60;66.90;;;;;;5032744;28;20368;-28
2022/08/11 08:40:05;;;;;;;3.53;1.60;;;25.60;66.80;;;;;;5016532;28;20048;-26
2022/08/11 08:42:37;;;;;;;2.20;1.42;;;25.60;66.90;;;;;;5014078;28;20030;-27
2022/08/11 08:45:09;;;;;;;1.73;1.30;;;25.70;66.90;;;;;;5013268;28;20391;-26
2022/08/11 08:47:38;;;;;;;1.45;1.30;;;25.70;66.90;;;;;;5013080;28;20073;-26
2022/08/11 08:50:14;;;;;;;2.17;1.30;;;25.70;66.80;;;;;;5012548;28;20509;-25
2022/08/11 08:52:46;;;;;;;2.58;1.40;;;25.70;66.80;;;;;;5013114;28;20480;-26
2022/08/11 08:55:17;;;;;;;2.65;1.35;;;25.70;66.70;;;;;;5012980;28;20026;-26
2022/08/11 08:57:44;;;;;;;1.88;1.20;;;25.80;66.80;;;;;;5012689;28;20022;-26
2022/08/11 09:00:14;;;;;;;2.05;1.30;;;25.80;66.80;;;;;;5018314;28;20021;-26
2022/08/11 09:02:41;;;;;;;2.25;1.40;;;25.80;66.70;;;;;;5032128;28;20402;-26
2022/08/11 09:05:08;;;;;;;2.05;1.55;;;25.80;66.60;;;;;;5032364;28;20030;-26
2022/08/11 09:07:35;;;;;;;1.75;1.48;;;25.80;66.50;;;;;;5032133;28;20046;-26
2022/08/11 09:10:01;;;;;;;2.38;1.50;;;25.90;66.50;;;;;;5031975;28;20071;-26
2022/08/11 09:12:30;;;;;;;2.42;1.30;;;25.90;66.50;;;;;;5032595;28;20033;-26
2022/08/11 09:14:59;;;;;;;1.98;1.50;;;25.90;66.50;;;;;;5032208;28;20099;-26
2022/08/11 09:17:38;;;;;;;1.83;1.50;;;25.90;66.50;;;;;;5031815;28;20485;-26
2022/08/11 09:20:20;;;;;;;2.80;1.50;;;26.00;66.50;;;;;;5031850;28;20405;-26
2022/08/11 09:28:19;;;;;;;1.75;1.30;;;26.00;66.50;;;;;;5032172;28;20029;-26
2022/08/11 09:30:52;;;;;;;2.70;1.50;;;26.00;66.40;;;;;;5031713;28;20467;-26
2022/08/11 09:33:18;;;;;;;2.72;1.30;;;26.00;66.40;;;;;;5031863;28;20064;-26
2022/08/11 09:35:46;;;;;;;3.72;1.25;;;26.10;66.30;;;;;;5031727;28;20033;-26
2022/08/11 09:41:04;;;;;;;1.73;1.20;;;26.10;66.10;;;;;;5012008;28;20049;-26
2022/08/11 09:46:15;;;;;;;2.05;1.30;;;26.20;66.70;;;;;;5012206;28;20087;-26
2022/08/11 09:48:44;;;;;;;2.22;1.40;;;26.30;66.00;;;;;;5011585;28;20460;-26
2022/08/11 09:51:10;;;;;;;2.05;1.33;;;26.30;65.80;;;;;;5018193;28;20025;-26
2022/08/11 09:53:41;;;;;;;1.48;1.10;;;26.30;65.80;;;;;;5031664;28;20029;-25
2022/08/11 09:59:05;;;;;;;1.95;1.40;;;26.40;65.80;;;;;;5031708;28;20064;-26
2022/08/11 10:01:41;;;;;;;2.33;1.30;;;26.40;66.50;;;;;;5031532;28;20079;-26
2022/08/11 10:04:06;;;;;;;2.15;1.25;;;26.40;65.60;;;;;;5031564;28;20014;-25
2022/08/11 10:09:22;;;;;;;3.67;1.42;;;26.50;65.50;;;;;;5031397;28;20163;-26
2022/08/11 10:11:48;;;;;;;2.35;1.27;;;26.50;65.50;;;;;;5031504;28;20360;-27
2022/08/11 10:17:08;;;;;;;2.33;1.33;;;26.50;65.40;;;;;;5031567;28;20401;-26
2022/08/11 10:19:36;;;;;;;2.15;1.40;;;26.60;65.40;;;;;;5031199;28;20025;-26
2022/08/11 10:27:35;;;;;;;1.40;1.20;;;26.60;65.30;;;;;;5031451;28;20040;-26
2022/08/11 10:35:34;;;;;;;2.60;1.20;;;26.70;65.10;;;;;;5031569;28;20044;-27
2022/08/11 10:38:00;;;;;;;2.60;1.50;;;26.70;65.10;;;;;;5022416;28;20479;-26
2022/08/11 10:40:27;;;;;;;1.80;1.40;;;26.70;65.10;;;;;;5011052;28;20475;-26
2022/08/11 10:43:11;;;;;;;2.70;1.50;;;26.70;65.10;;;;;;5023635;28;20537;-26
2022/08/11 10:48:26;;;;;;;9.52;1.83;;;26.80;65.30;;;;;;5033430;28;20139;-26
2022/08/11 10:51:12;;;;;;;10.80;1.52;;;26.80;62.40;;;;;;5034052;28;20057;-26
2022/08/11 10:59:16;;;;;;;5.82;1.50;;;27.00;59.10;;;;;;5034555;28;20391;-26
2022/08/11 11:01:43;;;;;;;4.63;1.33;;;26.90;59.40;;;;;;5034456;28;20025;-26
2022/08/11 11:04:17;;;;;;;7.93;1.50;;;26.90;59.90;;;;;;5034822;28;20040;-26
2022/08/11 11:07:12;;;;;;;6.32;1.45;;;26.80;60.30;;;;;;5034572;28;20104;-25
2022/08/11 11:09:49;;;;;;;7.00;1.83;;;26.80;60.70;;;;;;5034298;28;20418;-26
2022/08/11 11:18:24;;;;;;;3.63;1.60;;;26.80;61.50;;;;;;5034199;28;20457;-26
2022/08/11 11:20:55;;;;;;;5.95;1.33;;;26.70;61.70;;;;;;5034101;28;20052;-26
2022/08/11 11:23:38;;;;;;;4.15;1.50;;;26.80;62.00;;;;;;5034416;28;20116;-26
2022/08/11 11:26:22;;;;;;;2.67;1.25;;;26.80;62.00;;;;;;5034404;28;20486;-26
2022/08/11 11:29:19;;;;;;;5.05;1.45;;;26.70;62.00;;;;;;5033984;28;20026;-25
2022/08/11 11:32:05;;;;;;;2.75;1.48;;;26.70;62.20;;;;;;5034077;28;20099;-26
2022/08/11 11:34:56;;;;;;;2.65;1.23;;;26.80;62.30;;;;;;5033917;28;20029;-26
2022/08/11 11:37:25;;;;;;;5.57;1.27;;;26.80;62.40;;;;;;5030288;28;20033;-25
2022/08/11 11:39:56;;;;;;;4.70;1.20;;;26.70;62.30;;;;;;5028254;28;20040;-25
2022/08/11 11:42:22;;;;;;;2.67;1.38;;;26.80;62.40;;;;;;5033795;28;20033;-26
2022/08/11 11:44:49;;;;;;;3.92;1.17;;;26.70;62.40;;;;;;5033904;28;20068;-25
2022/08/11 11:47:21;;;;;;;1.98;1.27;;;26.80;62.50;;;;;;5033586;28;20048;-26
2022/08/11 11:49:48;;;;;;;4.28;1.42;;;26.80;62.60;;;;;;5071152;23;20057;-25
2022/08/11 11:52:17;;;;;;;3.50;1.30;;;26.80;62.60;;;;;;5033271;28;20100;-26
2022/08/11 11:54:49;;;;;;;2.10;0.95;;;26.80;62.60;;;;;;5033718;28;20393;-26
2022/08/11 12:02:50;;;;;;;2.03;1.45;;;26.90;62.70;;;;;;5033845;28;20036;-26
2022/08/11 12:05:16;;;;;;;5.38;1.42;;;26.90;62.70;;;;;;5033524;28;20152;-25
2022/08/11 12:10:27;;;;;;;2.60;1.27;;;26.90;62.70;;;;;;5033293;28;20227;-26
2022/08/11 12:15:38;;;;;;;2.40;1.20;;;26.90;62.80;;;;;;5033411;28;20045;-26
2022/08/11 12:18:04;;;;;;;3.22;1.30;;;26.90;62.80;;;;;;5032960;28;20474;-25
2022/08/11 12:20:31;;;;;;;1.85;1.15;;;26.90;62.70;;;;;;5012969;28;20486;-26
2022/08/11 12:28:29;;;;;;;1.75;1.15;;;27.00;62.90;;;;;;5017658;28;20049;-26
2022/08/11 12:30:56;;;;;;;3.33;1.10;;;27.00;62.80;;;;;;5011869;28;20133;-26
2022/08/11 12:33:22;;;;;;;2.10;1.13;;;27.00;62.90;;;;;;5013222;28;20026;-26
2022/08/11 12:35:53;;;;;;;1.70;1.20;;;27.00;62.90;;;;;;5014145;28;20018;-26
2022/08/11 12:38:22;;;;;;;1.70;1.08;;;27.00;62.80;;;;;;5023746;28;20125;-26
2022/08/11 12:46:31;;;;;;;1.05;0.82;;;27.00;63.00;;;;;;5032761;28;20293;-26
2022/08/11 12:52:00;;;;;;;5.57;1.48;;;27.00;63.00;;;;;;5032764;28;20052;-26
2022/08/11 12:54:56;;;;;;;3.30;1.33;;;27.00;63.10;;;;;;5032885;28;20378;-26
2022/08/11 13:06:03;;;;;;;2.28;0.90;;;27.00;63.00;;;;;;5028813;28;20427;-26
2022/08/11 13:08:34;;;;;;;1.95;1.27;;;27.00;62.90;;;;;;5032104;28;20379;-26
2022/08/11 13:13:47;;;;;;;2.05;0.98;;;27.00;63.00;;;;;;5032595;28;20072;-26
2022/08/11 13:16:13;;;;;;;1.35;0.90;;;27.00;63.00;;;;;;5032065;28;20529;-25
2022/08/11 13:18:41;;;;;;;1.30;0.98;;;27.10;63.00;;;;;;5031929;28;20044;-26
2022/08/11 13:21:09;;;;;;;1.48;1.05;;;27.00;63.00;;;;;;5030806;28;20025;-26
2022/08/11 13:23:37;;;;;;;4.30;1.00;;;27.10;63.10;;;;;;5032021;28;20029;-26
2022/08/11 13:26:04;;;;;;;1.60;0.90;;;27.10;63.10;;;;;;5032076;28;20026;-26
2022/08/11 13:28:30;;;;;;;1.13;0.90;;;27.00;63.10;;;;;;5031840;28;20521;-26
2022/08/11 13:31:13;;;;;;;2.33;1.10;;;27.00;63.10;;;;;;5031809;28;20025;-26
2022/08/11 13:33:48;;;;;;;2.95;1.25;;;27.10;63.20;;;;;;5031954;28;20025;-26
2022/08/11 13:36:19;;;;;;;1.83;0.98;;;27.10;63.20;;;;;;5031871;28;20021;-26
2022/08/11 13:38:45;;;;;;;1.55;1.00;;;27.10;63.20;;;;;;5019984;28;20053;-26
2022/08/11 13:43:55;;;;;;;1.23;1.00;;;27.10;63.20;;;;;;5032281;28;20536;-26
2022/08/11 13:46:23;;;;;;;1.17;1.00;;;27.10;63.20;;;;;;5032265;28;20117;-26
2022/08/11 13:48:50;;;;;;;1.52;0.85;;;27.10;64.00;;;;;;5031585;28;20029;-25
2022/08/11 13:54:18;;;;;;;1.08;0.85;;;27.10;63.20;;;;;;4998034;28;20025;-26
2022/08/11 13:56:46;;;;;;;2.75;1.10;;;27.10;63.30;;;;;;5031759;28;20048;-26
2022/08/11 13:59:13;;;;;;;1.23;0.98;;;27.10;63.40;;;;;;5031530;28;20026;-26
2022/08/11 14:01:53;;;;;;;1.63;0.90;;;27.10;63.30;;;;;;5031756;28;20025;-26
2022/08/11 14:05:01;;;;;;;1.00;0.90;;;27.10;63.30;;;;;;5031627;28;20018;-26
2022/08/11 14:07:37;;;;;;;1.10;0.90;;;27.10;63.30;;;;;;4987341;28;20498;-26
2022/08/11 14:10:06;;;;;;;1.40;0.95;;;27.20;63.40;;;;;;5031383;28;20463;-26
2022/08/11 14:15:18;;;;;;;1.58;1.10;;;27.20;63.30;;;;;;5031896;28;20135;-26
2022/08/11 14:18:07;;;;;;;1.00;0.75;;;27.10;63.30;;;;;;5031578;28;20100;-26
2022/08/11 14:23:36;;;;;;;1.55;0.90;;;27.20;63.30;;;;;;5033733;28;20379;-26
2022/08/11 14:28:47;;;;;;;1.98;0.93;;;27.20;63.30;;;;;;5035416;28;20156;-26
2022/08/11 14:31:15;;;;;;;2.50;0.82;;;27.20;63.30;;;;;;5035206;28;20112;-26
2022/08/11 14:33:43;;;;;;;1.23;0.90;;;27.10;63.40;;;;;;5035571;28;20033;-26
2022/08/11 14:36:10;;;;;;;1.67;0.95;;;27.10;63.40;;;;;;5020520;28;20048;-26
2022/08/11 14:38:37;;;;;;;1.20;0.80;;;27.10;63.40;;;;;;5015126;28;20037;-26
2022/08/11 14:49:19;;;;;;;1.92;0.93;;;27.20;63.30;;;;;;5034605;28;20195;-24
2022/08/11 14:51:48;;;;;;;1.58;0.85;;;27.20;63.40;;;;;;5034900;28;20024;-25
2022/08/11 14:57:02;;;;;;;1.00;0.90;;;27.10;63.30;;;;;;5034922;28;20033;-26
2022/08/11 14:59:28;;;;;;;1.63;0.90;;;27.10;63.40;;;;;;5034972;28;20026;-26
2022/08/11 15:04:38;;;;;;;1.95;0.80;;;27.10;63.40;;;;;;5014899;28;20487;-26
2022/08/11 15:07:05;;;;;;;1.77;0.90;;;27.10;63.30;;;;;;5015221;28;20502;-26
2022/08/11 15:09:31;;;;;;;6.18;1.23;;;27.10;63.30;;;;;;5014428;28;20033;-26
2022/08/11 15:12:07;;;;;;;3.17;1.10;;;27.20;57.90;;;;;;5014669;28;20032;-26
2022/08/11 15:17:20;;;;;;;4.05;1.20;;;27.30;58.00;;;;;;5034598;28;20450;-26
2022/08/11 15:25:15;;;;;;;4.07;1.33;;;27.20;59.30;;;;;;5034408;28;20029;-26
2022/08/11 15:39:11;;;;;;;4.20;1.17;;;27.50;55.50;;;;;;5034146;28;20532;-26
2022/08/11 15:47:35;;;;;;;2.95;1.20;;;27.50;56.80;;;;;;5034257;28;20033;-25
2022/08/11 15:50:04;;;;;;;4.63;1.40;;;27.40;57.30;;;;;;5014270;28;20105;-26
2022/08/11 15:52:34;;;;;;;2.38;1.20;;;27.40;57.70;;;;;;5022614;28;20108;-26
2022/08/11 15:55:06;;;;;;;2.05;0.98;;;27.30;57.80;;;;;;5018316;28;20460;-26
2022/08/11 16:05:49;;;;;;;1.77;1.10;;;27.30;58.70;;;;;;5014162;28;20044;-23
2022/08/11 16:08:21;;;;;;;2.28;1.13;;;27.30;59.50;;;;;;5013773;28;20026;-23
2022/08/11 16:10:47;;;;;;;1.65;0.82;;;27.30;58.90;;;;;;5013751;28;20104;-24
2022/08/11 16:18:55;;;;;;;1.92;0.90;;;27.30;59.20;;;;;;5013926;28;20029;-26
2022/08/11 16:21:26;;;;;;;1.75;1.00;;;27.30;59.30;;;;;;5013587;28;20025;-26
2022/08/11 16:23:55;;;;;;;1.08;0.82;;;27.30;59.40;;;;;;5013564;28;20033;-26
2022/08/11 16:26:22;;;;;;;1.27;1.00;;;27.30;59.40;;;;;;5013478;28;20033;-26
2022/08/11 16:28:56;;;;;;;1.30;0.90;;;27.30;59.50;;;;;;5013219;28;20020;-26
2022/08/11 16:31:23;;;;;;;2.58;1.10;;;27.30;59.60;;;;;;5013215;28;20034;-26
2022/08/11 16:33:52;;;;;;;1.63;1.08;;;27.30;59.70;;;;;;5013353;28;20487;-26
2022/08/11 16:39:05;;;;;;;1.40;0.90;;;27.30;59.80;;;;;;5013342;28;20558;-26
2022/08/11 16:47:07;;;;;;;1.45;1.00;;;27.30;59.90;;;;;;5013030;28;20042;-26
2022/08/11 16:49:41;;;;;;;1.10;0.82;;;27.30;60.00;;;;;;5013099;28;20037;-26
2022/08/11 16:52:10;;;;;;;1.95;1.02;;;27.30;60.10;;;;;;5012951;28;20033;-26
2022/08/11 16:54:38;;;;;;;1.15;0.90;;;27.30;60.20;;;;;;5013317;28;20112;-26
2022/08/11 17:00:05;;;;;;;1.67;1.00;;;27.30;60.20;;;;;;5013028;28;20033;-26
2022/08/11 17:14:13;;;;;;;1.67;0.90;;;27.30;60.40;;;;;;5012976;28;20121;-26
2022/08/11 17:16:40;;;;;;;1.35;0.93;;;27.30;60.40;;;;;;5012267;28;20042;-26
2022/08/11 17:19:12;;;;;;;1.60;1.08;;;27.30;60.40;;;;;;5012539;28;20034;-26
2022/08/11 17:24:33;;;;;;;1.40;1.00;;;27.30;60.50;;;;;;5012813;28;20092;-26
2022/08/11 17:27:00;;;;;;;1.38;1.20;;;27.30;60.50;;;;;;5012508;28;20022;-26
2022/08/11 17:29:52;;;;;;;1.13;0.93;;;27.30;60.50;;;;;;5012331;28;20022;-26
2022/08/11 17:38:32;;;;;;;3.05;1.23;;;27.30;60.60;;;;;;5012234;28;20044;-26
2022/08/11 18:00:06;;;;;;;1.75;1.00;;;27.30;61.10;;;;;;5063001;28;20504;-23
2022/08/11 18:05:22;;;;;;;1.67;1.08;;;27.30;61.10;;;;;;5076100;28;20036;-24
